Time;durP1;ratioP1;P1;durP2;ratioP2;P2;SDS_P1;SDS_P2;PMS_P1;PMS_P2;Temp;Humidity;BMP_temperature;BMP_pressure;BME280_temperature;BME280_humidity;BME280_pressure;Samples;Min_cycle;Max_cycle;Signal;HPM_P1;HPM_P2
2021/01/05 00:00:23;;;;;;;102.70;61.88;;;;;;;;;;5060907;28;20038;-57
2021/01/05 00:02:51;;;;;;;89.35;54.75;;;;;;;;;;5075283;28;20019;-56
2021/01/05 00:05:17;;;;;;;89.18;54.28;;;;;;;;;;5075495;28;20020;-57
2021/01/05 00:07:43;;;;;;;104.47;61.00;;;;;;;;;;5075751;28;20016;-57
2021/01/05 00:10:10;;;;;;;83.45;50.05;;;;;;;;;;5075259;28;20039;-57
2021/01/05 00:12:36;;;;;;;89.05;52.53;;;;;;;;;;5069156;28;20017;-56
2021/01/05 00:15:03;;;;;;;85.57;51.60;;;;;;;;;;5063166;28;20035;-55
2021/01/05 00:17:29;;;;;;;113.20;65.10;;;;;;;;;;5075170;28;20028;-57
2021/01/05 00:19:55;;;;;;;85.63;53.42;;;;;;;;;;5075133;28;20039;-57
2021/01/05 00:22:22;;;;;;;77.07;49.28;;;;;;;;;;5075173;28;20033;-56
2021/01/05 00:24:48;;;;;;;78.53;47.88;;;;;;;;;;5072314;28;20448;-56
2021/01/05 00:27:14;;;;;;;73.95;45.28;;;;;;;;;;5075036;28;20535;-56
2021/01/05 00:29:40;;;;;;;78.38;48.58;;;;;;;;;;5074836;28;20037;-56
2021/01/05 00:32:07;;;;;;;73.32;45.40;;;;;;;;;;5074634;28;20411;-56
2021/01/05 00:34:34;;;;;;;74.10;45.15;;;;;;;;;;5075257;28;20453;-57
2021/01/05 00:37:00;;;;;;;73.80;44.65;;;;;;;;;;5074971;28;20062;-56
2021/01/05 00:39:26;;;;;;;74.82;46.83;;;;;;;;;;5066978;28;20029;-55
2021/01/05 00:41:52;;;;;;;65.20;41.63;;;;;;;;;;5054863;28;20027;-56
2021/01/05 00:44:18;;;;;;;63.03;39.38;;;;;;;;;;5055947;28;20095;-56
2021/01/05 00:46:44;;;;;;;54.15;33.85;;;;;;;;;;5057151;28;20040;-56
2021/01/05 00:49:10;;;;;;;46.40;27.80;;;;;;;;;;5056108;28;20029;-56
2021/01/05 00:51:36;;;;;;;42.88;25.70;;;;;;;;;;5056304;28;20047;-56
2021/01/05 00:54:02;;;;;;;45.25;26.15;;;;;;;;;;5055580;28;20035;-57
2021/01/05 00:56:28;;;;;;;44.28;25.60;;;;;;;;;;5057135;28;20500;-56
2021/01/05 00:58:54;;;;;;;63.42;36.40;;;;;;;;;;5057290;28;20059;-56
2021/01/05 01:01:21;;;;;;;51.53;29.10;;;;;;;;;;5055303;28;20020;-56
2021/01/05 01:03:51;;;;;;;43.78;24.63;;;;;;;;;;5053345;28;20025;-55
2021/01/05 01:06:17;;;;;;;36.58;20.85;;;;;;;;;;5053697;28;20021;-57
2021/01/05 01:08:44;;;;;;;34.67;19.55;;;;;;;;;;5055801;28;20017;-55
2021/01/05 01:11:10;;;;;;;31.83;19.45;;;;;;;;;;5055589;28;20098;-56
2021/01/05 01:13:36;;;;;;;34.53;20.95;;;;;;;;;;5056386;28;20534;-57
2021/01/05 01:16:02;;;;;;;36.28;22.48;;;;;;;;;;5054517;28;20490;-56
2021/01/05 01:18:28;;;;;;;37.10;22.00;;;;;;;;;;5054938;28;20057;-55
2021/01/05 01:20:54;;;;;;;39.10;22.48;;;;;;;;;;5054891;28;20099;-56
2021/01/05 01:23:20;;;;;;;40.28;22.08;;;;;;;;;;5058445;28;20028;-56
2021/01/05 01:25:47;;;;;;;33.25;20.05;;;;;;;;;;5053978;28;20045;-56
2021/01/05 01:28:13;;;;;;;32.55;19.77;;;;;;;;;;5055400;28;20025;-57
2021/01/05 01:30:39;;;;;;;34.78;20.33;;;;;;;;;;5055569;28;20068;-57
2021/01/05 01:33:05;;;;;;;38.78;23.35;;;;;;;;;;5035181;28;20047;-55
2021/01/05 01:35:32;;;;;;;33.20;19.67;;;;;;;;;;5055430;28;20035;-56
2021/01/05 01:37:58;;;;;;;31.48;19.70;;;;;;;;;;5055019;28;20052;-56
2021/01/05 01:40:30;;;;;;;31.30;19.15;;;;;;;;;;5059565;28;20024;-57
2021/01/05 01:42:56;;;;;;;28.27;17.80;;;;;;;;;;5061704;28;20082;-57
2021/01/05 01:45:24;;;;;;;25.25;15.50;;;;;;;;;;5062327;28;20035;-56
2021/01/05 01:47:50;;;;;;;25.08;15.50;;;;;;;;;;5073909;28;20555;-57
2021/01/05 01:50:18;;;;;;;29.98;18.60;;;;;;;;;;5073382;28;20028;-57
2021/01/05 01:53:03;;;;;;;30.92;18.45;;;;;;;;;;5073500;28;20049;-57
2021/01/05 01:55:46;;;;;;;26.80;15.85;;;;;;;;;;5073342;28;20048;-56
2021/01/05 01:58:24;;;;;;;27.42;15.88;;;;;;;;;;5073732;28;20033;-56
2021/01/05 02:00:53;;;;;;;24.88;15.20;;;;;;;;;;5071446;28;20021;-56
2021/01/05 02:03:49;;;;;;;30.20;19.08;;;;;;;;;;5073506;28;20484;-57
2021/01/05 02:06:39;;;;;;;34.55;20.95;;;;;;;;;;5052121;28;20037;-57
2021/01/05 02:09:24;;;;;;;35.95;22.38;;;;;;;;;;5072955;28;20060;-57
2021/01/05 02:11:50;;;;;;;41.00;23.92;;;;;;;;;;5073444;28;20606;-55
2021/01/05 02:14:36;;;;;;;41.85;25.58;;;;;;;;;;5059214;28;20052;-55
2021/01/05 02:17:21;;;;;;;47.08;28.63;;;;;;;;;;5055803;28;20025;-56
2021/01/05 02:19:55;;;;;;;54.97;31.48;;;;;;;;;;5061167;28;20028;-57
2021/01/05 02:22:26;;;;;;;66.47;37.10;;;;;;;;;;5064639;28;20430;-55
2021/01/05 02:25:11;;;;;;;98.10;48.10;;;;;;;;;;5061934;28;20040;-56
2021/01/05 02:27:45;;;;;;;102.85;49.08;;;;;;;;;;5058527;28;20423;-56
2021/01/05 02:30:12;;;;;;;100.85;49.08;;;;;;;;;;5067914;28;20090;-56
2021/01/05 02:32:57;;;;;;;79.53;41.22;;;;;;;;;;5065654;28;20030;-55
2021/01/05 02:35:41;;;;;;;64.07;33.88;;;;;;;;;;5063536;28;20101;-55
2021/01/05 02:38:28;;;;;;;76.03;38.58;;;;;;;;;;5055596;28;20040;-56
2021/01/05 02:41:14;;;;;;;63.92;35.17;;;;;;;;;;5060499;28;20368;-54
2021/01/05 02:43:54;;;;;;;52.45;30.55;;;;;;;;;;4986070;28;20045;-55
2021/01/05 02:46:24;;;;;;;46.50;27.30;;;;;;;;;;4988142;28;20022;-56
2021/01/05 02:48:50;;;;;;;44.35;26.92;;;;;;;;;;4973664;28;20062;-55
2021/01/05 02:51:35;;;;;;;41.60;27.13;;;;;;;;;;4987070;28;20054;-56
2021/01/05 02:54:19;;;;;;;45.63;27.95;;;;;;;;;;4987727;28;20085;-55
2021/01/05 02:56:51;;;;;;;48.40;29.13;;;;;;;;;;4981067;28;20042;-55
2021/01/05 02:59:23;;;;;;;51.38;30.50;;;;;;;;;;4990130;28;20041;-53
2021/01/05 03:02:04;;;;;;;55.10;31.33;;;;;;;;;;4988942;28;20120;-55
2021/01/05 03:04:30;;;;;;;51.03;30.40;;;;;;;;;;4987761;28;20058;-54
2021/01/05 03:06:57;;;;;;;49.63;29.45;;;;;;;;;;4989808;28;20038;-55
2021/01/05 03:09:42;;;;;;;49.47;30.38;;;;;;;;;;4989858;28;20359;-54
2021/01/05 03:12:16;;;;;;;49.63;29.83;;;;;;;;;;4986917;28;20026;-56
2021/01/05 03:14:48;;;;;;;46.85;27.50;;;;;;;;;;4989860;28;20077;-57
2021/01/05 03:17:37;;;;;;;42.63;27.33;;;;;;;;;;4990650;28;20023;-56
2021/01/05 03:20:21;;;;;;;45.13;28.02;;;;;;;;;;4948510;28;20048;-57
2021/01/05 03:22:50;;;;;;;44.17;27.38;;;;;;;;;;5011300;28;20109;-57
2021/01/05 03:25:16;;;;;;;45.55;28.30;;;;;;;;;;5010077;28;20050;-56
2021/01/05 03:27:43;;;;;;;53.63;32.28;;;;;;;;;;5009706;28;20028;-57
2021/01/05 03:30:19;;;;;;;51.75;32.88;;;;;;;;;;5009951;28;20056;-56
2021/01/05 03:32:45;;;;;;;54.45;33.40;;;;;;;;;;5009753;28;20037;-56
2021/01/05 03:35:11;;;;;;;50.38;32.28;;;;;;;;;;5010323;28;20029;-57
2021/01/05 03:37:37;;;;;;;52.45;32.75;;;;;;;;;;5010094;28;20062;-56
2021/01/05 03:40:04;;;;;;;55.03;34.00;;;;;;;;;;5010355;28;20113;-56
2021/01/05 03:42:30;;;;;;;55.85;33.22;;;;;;;;;;5009921;28;20157;-57
2021/01/05 03:44:56;;;;;;;53.22;33.97;;;;;;;;;;5010256;28;20034;-56
2021/01/05 03:47:22;;;;;;;57.97;34.25;;;;;;;;;;5010065;28;20101;-57
2021/01/05 03:49:48;;;;;;;55.97;33.90;;;;;;;;;;5009982;28;20061;-57
2021/01/05 03:52:14;;;;;;;57.30;33.70;;;;;;;;;;5009742;28;20021;-57
2021/01/05 03:54:40;;;;;;;52.78;31.70;;;;;;;;;;5006866;28;20034;-57
2021/01/05 03:57:06;;;;;;;52.72;32.20;;;;;;;;;;5032712;28;20112;-57
2021/01/05 03:59:32;;;;;;;50.90;30.85;;;;;;;;;;5071647;28;20028;-56
2021/01/05 04:01:58;;;;;;;49.53;30.23;;;;;;;;;;5071694;28;20436;-56
2021/01/05 04:04:25;;;;;;;49.25;29.98;;;;;;;;;;5071651;28;20108;-57
2021/01/05 04:06:51;;;;;;;43.47;28.08;;;;;;;;;;5071792;28;20009;-57
2021/01/05 04:09:17;;;;;;;46.53;28.08;;;;;;;;;;5071704;28;20024;-57
2021/01/05 04:11:43;;;;;;;39.65;25.75;;;;;;;;;;5071676;28;20040;-57
2021/01/05 04:14:09;;;;;;;45.25;26.23;;;;;;;;;;5071562;28;20420;-55
2021/01/05 04:16:35;;;;;;;41.20;25.25;;;;;;;;;;5071536;28;20027;-57
2021/01/05 04:19:01;;;;;;;44.63;27.25;;;;;;;;;;5071569;28;20119;-56
2021/01/05 04:21:27;;;;;;;39.20;25.30;;;;;;;;;;5071663;28;20093;-56
2021/01/05 04:23:53;;;;;;;44.63;27.67;;;;;;;;;;5071098;28;20025;-57
2021/01/05 04:26:19;;;;;;;53.00;29.92;;;;;;;;;;5071618;28;20078;-57
2021/01/05 04:28:45;;;;;;;52.05;30.27;;;;;;;;;;5071527;28;20046;-56
2021/01/05 04:31:11;;;;;;;84.50;44.20;;;;;;;;;;5073944;28;20082;-56
2021/01/05 04:33:37;;;;;;;82.45;43.05;;;;;;;;;;5071369;28;20032;-57
2021/01/05 04:36:03;;;;;;;68.15;38.30;;;;;;;;;;5071411;28;20028;-56
2021/01/05 04:38:29;;;;;;;54.83;32.47;;;;;;;;;;5071688;28;20029;-56
2021/01/05 04:40:56;;;;;;;60.42;34.65;;;;;;;;;;5074428;28;20016;-57
2021/01/05 04:43:25;;;;;;;81.38;42.58;;;;;;;;;;5075194;28;20029;-57
2021/01/05 04:46:07;;;;;;;74.20;39.80;;;;;;;;;;5074903;28;20024;-56
2021/01/05 04:48:35;;;;;;;58.08;31.88;;;;;;;;;;5074995;28;20485;-57
2021/01/05 04:51:03;;;;;;;46.85;28.13;;;;;;;;;;5074866;28;20495;-57
2021/01/05 04:53:34;;;;;;;51.92;28.80;;;;;;;;;;5074326;28;20036;-57
2021/01/05 04:56:06;;;;;;;55.97;30.57;;;;;;;;;;5074911;28;20507;-57
2021/01/05 04:58:32;;;;;;;;;;;;;;;;;;5075373;28;20035;-57
2021/01/05 05:00:59;;;;;;;44.38;26.77;;;;;;;;;;5074681;28;19904;-56
2021/01/05 05:03:41;;;;;;;51.05;27.88;;;;;;;;;;5074538;28;20032;-57
2021/01/05 05:06:27;;;;;;;47.85;26.10;;;;;;;;;;5074617;28;20039;-57
2021/01/05 05:09:05;;;;;;;48.17;25.88;;;;;;;;;;4980670;28;20461;-57
2021/01/05 05:11:33;;;;;;;43.92;25.75;;;;;;;;;;4992815;28;20034;-56
2021/01/05 05:14:02;;;;;;;42.35;25.50;;;;;;;;;;4992906;28;20038;-56
2021/01/05 05:16:47;;;;;;;47.38;27.33;;;;;;;;;;4993108;28;20030;-56
2021/01/05 05:19:16;;;;;;;47.30;29.15;;;;;;;;;;4992982;28;20034;-55
2021/01/05 05:21:45;;;;;;;53.92;31.15;;;;;;;;;;4991241;28;20485;-55
2021/01/05 05:24:11;;;;;;;53.20;30.23;;;;;;;;;;4992377;28;20133;-56
2021/01/05 05:26:42;;;;;;;48.40;29.00;;;;;;;;;;4992389;28;20530;-55
2021/01/05 05:29:14;;;;;;;61.33;37.50;;;;;;;;;;4992390;28;20034;-54
2021/01/05 05:31:41;;;;;;;52.20;31.08;;;;;;;;;;4992405;28;20062;-55
2021/01/05 05:34:13;;;;;;;63.05;35.58;;;;;;;;;;4989961;28;20433;-54
2021/01/05 05:36:48;;;;;;;58.22;34.95;;;;;;;;;;4989942;28;20066;-55
2021/01/05 05:39:26;;;;;;;55.88;30.63;;;;;;;;;;4989103;28;20066;-56
2021/01/05 05:42:01;;;;;;;58.05;34.60;;;;;;;;;;4983147;28;20049;-56
2021/01/05 05:44:42;;;;;;;80.07;42.90;;;;;;;;;;4992593;28;20034;-56
2021/01/05 05:47:23;;;;;;;90.18;45.92;;;;;;;;;;5067694;28;20032;-55
2021/01/05 05:49:49;;;;;;;54.50;33.15;;;;;;;;;;5073398;28;20033;-55
2021/01/05 05:52:20;;;;;;;48.35;30.23;;;;;;;;;;5074865;28;20105;-56
2021/01/05 05:54:47;;;;;;;52.80;32.03;;;;;;;;;;5072607;28;20472;-54
2021/01/05 05:57:39;;;;;;;46.45;26.77;;;;;;;;;;5073459;28;20025;-56
2021/01/05 06:00:20;;;;;;;57.00;32.80;;;;;;;;;;5068796;28;20067;-56
2021/01/05 06:02:46;;;;;;;55.40;33.17;;;;;;;;;;5073221;28;20025;-56
2021/01/05 06:05:20;;;;;;;58.78;35.72;;;;;;;;;;5073550;28;20099;-56
2021/01/05 06:07:46;;;;;;;55.40;32.28;;;;;;;;;;5073332;28;20043;-55
2021/01/05 06:10:13;;;;;;;69.07;42.05;;;;;;;;;;5073427;28;20054;-56
2021/01/05 06:12:39;;;;;;;69.88;42.25;;;;;;;;;;5072907;28;20055;-56
2021/01/05 06:15:05;;;;;;;63.22;38.15;;;;;;;;;;5073454;28;20052;-56
2021/01/05 06:17:31;;;;;;;57.58;38.53;;;;;;;;;;5072847;28;20028;-56
2021/01/05 06:19:57;;;;;;;72.55;37.83;;;;;;;;;;5073162;28;20093;-56
2021/01/05 06:22:23;;;;;;;53.22;32.17;;;;;;;;;;5055264;28;20024;-56
2021/01/05 06:24:49;;;;;;;58.55;33.47;;;;;;;;;;5072508;28;20060;-56
2021/01/05 06:27:15;;;;;;;56.90;34.03;;;;;;;;;;5072880;28;20045;-56
2021/01/05 06:29:41;;;;;;;48.15;30.30;;;;;;;;;;5072729;28;20016;-56
2021/01/05 06:32:07;;;;;;;50.20;30.15;;;;;;;;;;5072812;28;20032;-55
2021/01/05 06:34:33;;;;;;;63.47;35.63;;;;;;;;;;5072665;28;20043;-57
2021/01/05 06:36:59;;;;;;;84.55;46.30;;;;;;;;;;5072973;28;20380;-56
2021/01/05 06:39:25;;;;;;;73.55;38.63;;;;;;;;;;5072802;28;20036;-56
2021/01/05 06:41:51;;;;;;;124.93;60.25;;;;;;;;;;5072591;28;20039;-56
2021/01/05 06:44:17;;;;;;;128.05;63.85;;;;;;;;;;5072469;28;20070;-56
2021/01/05 06:46:44;;;;;;;79.10;43.83;;;;;;;;;;5072226;28;20070;-56
2021/01/05 06:49:10;;;;;;;85.03;46.95;;;;;;;;;;5072642;28;20024;-56
2021/01/05 06:51:36;;;;;;;118.25;63.80;;;;;;;;;;5072742;28;20019;-56
2021/01/05 06:54:02;;;;;;;207.73;111.20;;;;;;;;;;5055645;28;20041;-56
2021/01/05 06:56:28;;;;;;;109.70;62.17;;;;;;;;;;5072196;28;20020;-56
2021/01/05 06:58:54;;;;;;;150.90;80.85;;;;;;;;;;5071940;28;20382;-56
2021/01/05 07:01:20;;;;;;;76.20;44.13;;;;;;;;;;5072347;28;20056;-56
2021/01/05 07:03:46;;;;;;;78.88;43.47;;;;;;;;;;5071463;28;20029;-56
2021/01/05 07:06:12;;;;;;;144.80;93.38;;;;;;;;;;5072139;28;20023;-56
2021/01/05 07:08:38;;;;;;;104.15;65.78;;;;;;;;;;5072238;28;20108;-56
2021/01/05 07:11:04;;;;;;;70.10;45.63;;;;;;;;;;5072024;28;20028;-56
2021/01/05 07:13:30;;;;;;;76.90;49.38;;;;;;;;;;5071899;28;20039;-56
2021/01/05 07:15:56;;;;;;;82.03;48.38;;;;;;;;;;5071912;28;20022;-56
2021/01/05 07:18:22;;;;;;;84.10;49.03;;;;;;;;;;5072012;28;20446;-57
2021/01/05 07:20:48;;;;;;;57.38;35.35;;;;;;;;;;5071795;28;20457;-56
2021/01/05 07:23:14;;;;;;;65.20;40.35;;;;;;;;;;5065367;28;20083;-56
2021/01/05 07:25:40;;;;;;;60.25;39.25;;;;;;;;;;5062057;28;20056;-56
2021/01/05 07:28:06;;;;;;;66.07;39.70;;;;;;;;;;5071758;28;20020;-55
2021/01/05 07:30:32;;;;;;;37.22;24.90;;;;;;;;;;5071914;28;20032;-56
2021/01/05 07:32:58;;;;;;;37.30;23.85;;;;;;;;;;5071381;28;20024;-56
2021/01/05 07:35:24;;;;;;;39.67;24.88;;;;;;;;;;5071478;28;20028;-56
2021/01/05 07:37:50;;;;;;;44.33;26.55;;;;;;;;;;5072048;28;20096;-57
2021/01/05 07:40:19;;;;;;;51.60;29.08;;;;;;;;;;5071611;28;20036;-56
2021/01/05 07:42:45;;;;;;;61.25;37.75;;;;;;;;;;5071706;28;20052;-56
2021/01/05 07:45:16;;;;;;;68.47;43.35;;;;;;;;;;5069930;28;20031;-57
2021/01/05 07:47:42;;;;;;;57.55;38.40;;;;;;;;;;5071505;28;20028;-56
2021/01/05 07:50:09;;;;;;;62.97;38.53;;;;;;;;;;5071578;28;20103;-56
2021/01/05 07:52:37;;;;;;;62.40;39.47;;;;;;;;;;5071291;28;20033;-56
2021/01/05 07:55:04;;;;;;;57.20;35.25;;;;;;;;;;5071705;28;20502;-56
2021/01/05 07:57:30;;;;;;;48.17;31.20;;;;;;;;;;5071919;28;20031;-56
2021/01/05 07:59:56;;;;;;;46.22;28.88;;;;;;;;;;5071357;28;20032;-56
2021/01/05 08:02:22;;;;;;;46.15;29.02;;;;;;;;;;5071219;28;20029;-56
2021/01/05 08:04:49;;;;;;;49.78;31.70;;;;;;;;;;5071734;28;20078;-56
2021/01/05 08:07:15;;;;;;;57.47;37.35;;;;;;;;;;5071427;28;20099;-56
2021/01/05 08:09:42;;;;;;;71.50;45.92;;;;;;;;;;5071648;28;20468;-57
2021/01/05 08:12:20;;;;;;;94.15;59.08;;;;;;;;;;5071405;28;20031;-56
2021/01/05 08:14:47;;;;;;;103.43;63.08;;;;;;;;;;5072728;28;20033;-57
2021/01/05 08:17:13;;;;;;;102.03;60.72;;;;;;;;;;5075293;28;20027;-56
2021/01/05 08:19:43;;;;;;;95.47;58.90;;;;;;;;;;5075371;28;20085;-57
2021/01/05 08:22:10;;;;;;;99.38;59.15;;;;;;;;;;5074942;28;20029;-56
2021/01/05 08:24:36;;;;;;;87.53;55.28;;;;;;;;;;5075429;28;20045;-57
2021/01/05 08:27:02;;;;;;;68.32;42.75;;;;;;;;;;5075217;28;20029;-57
2021/01/05 08:29:29;;;;;;;73.28;45.78;;;;;;;;;;5075276;28;20055;-55
2021/01/05 08:31:55;;;;;;;84.30;50.13;;;;;;;;;;5072709;28;20486;-55
2021/01/05 08:34:21;;;;;;;64.65;41.42;;;;;;;;;;5072275;28;20064;-56
2021/01/05 08:36:47;;;;;;;73.22;45.08;;;;;;;;;;5074231;28;20021;-56
2021/01/05 08:39:13;;;;;;;100.88;60.60;;;;;;;;;;5073253;28;20078;-56
2021/01/05 08:41:41;;;;;;;135.93;74.97;;;;;;;;;;5074531;28;20059;-60
2021/01/05 08:44:07;;;;;;;89.65;55.88;;;;;;;;;;5088879;28;20107;-57
2021/01/05 08:46:33;;;;;;;98.82;60.33;;;;;;;;;;5073805;28;20021;-58
2021/01/05 08:48:59;;;;;;;103.22;66.80;;;;;;;;;;5074267;28;20028;-58
2021/01/05 08:51:25;;;;;;;79.00;50.17;;;;;;;;;;5074406;28;20024;-60
2021/01/05 08:53:52;;;;;;;54.33;36.10;;;;;;;;;;5068196;28;20094;-58
2021/01/05 08:56:19;;;;;;;46.25;29.90;;;;;;;;;;5069945;28;20028;-56
2021/01/05 08:58:45;;;;;;;55.92;37.63;;;;;;;;;;5072401;28;20029;-56
2021/01/05 09:01:11;;;;;;;57.00;39.17;;;;;;;;;;5075091;28;20381;-59
2021/01/05 09:03:37;;;;;;;47.30;32.00;;;;;;;;;;5074083;28;20048;-59
2021/01/05 09:06:04;;;;;;;51.80;35.78;;;;;;;;;;5074460;28;20596;-56
2021/01/05 09:08:30;;;;;;;44.35;29.30;;;;;;;;;;5074207;28;20029;-55
2021/01/05 09:11:04;;;;;;;53.75;35.72;;;;;;;;;;5073914;28;20024;-56
2021/01/05 09:13:30;;;;;;;44.42;29.20;;;;;;;;;;5074025;28;20031;-56
2021/01/05 09:15:56;;;;;;;38.45;25.80;;;;;;;;;;5074317;28;20024;-58
2021/01/05 09:18:22;;;;;;;33.85;22.95;;;;;;;;;;5073813;28;20025;-57
2021/01/05 09:20:52;;;;;;;32.38;21.35;;;;;;;;;;5068640;28;20025;-57
2021/01/05 09:23:27;;;;;;;31.05;22.38;;;;;;;;;;5073609;28;20051;-57
2021/01/05 09:25:54;;;;;;;36.47;23.60;;;;;;;;;;5066342;28;20098;-57
2021/01/05 09:28:20;;;;;;;37.20;24.52;;;;;;;;;;5073680;28;20107;-57
2021/01/05 09:30:47;;;;;;;40.67;25.25;;;;;;;;;;5073474;28;20013;-57
2021/01/05 09:33:13;;;;;;;28.40;19.90;;;;;;;;;;5073548;28;20032;-57
2021/01/05 09:35:39;;;;;;;35.60;23.92;;;;;;;;;;5073595;28;20104;-57
2021/01/05 09:38:08;;;;;;;30.65;21.95;;;;;;;;;;5073844;28;20027;-57
2021/01/05 09:40:35;;;;;;;30.63;20.40;;;;;;;;;;5073594;28;20028;-57
2021/01/05 09:43:01;;;;;;;32.25;21.27;;;;;;;;;;5073551;28;20048;-58
2021/01/05 09:45:27;;;;;;;27.02;17.75;;;;;;;;;;5073364;28;20029;-57
2021/01/05 09:48:03;;;;;;;27.58;18.45;;;;;;;;;;5073558;28;20020;-57
2021/01/05 09:50:29;;;;;;;24.80;16.95;;;;;;;;;;5073431;28;20037;-57
2021/01/05 09:52:55;;;;;;;24.20;16.15;;;;;;;;;;5072865;28;20478;-56
2021/01/05 09:55:21;;;;;;;20.98;15.30;;;;;;;;;;5073055;28;20499;-57
2021/01/05 09:57:47;;;;;;;20.63;14.05;;;;;;;;;;5071279;28;20452;-57
2021/01/05 10:00:14;;;;;;;20.45;14.25;;;;;;;;;;5072762;28;20469;-55
2021/01/05 10:02:40;;;;;;;28.42;18.65;;;;;;;;;;5073123;28;20028;-56
2021/01/05 10:05:06;;;;;;;21.55;15.73;;;;;;;;;;5073039;28;20095;-57
2021/01/05 10:07:32;;;;;;;28.63;21.10;;;;;;;;;;5073252;28;20029;-57
2021/01/05 10:09:58;;;;;;;18.65;14.82;;;;;;;;;;5069024;28;20541;-58
2021/01/05 10:12:24;;;;;;;30.65;22.48;;;;;;;;;;5072097;28;20036;-57
2021/01/05 10:14:50;;;;;;;55.60;37.45;;;;;;;;;;5072647;28;20036;-57
2021/01/05 10:17:16;;;;;;;36.75;27.52;;;;;;;;;;5073057;28;20020;-57
2021/01/05 10:19:42;;;;;;;29.45;21.63;;;;;;;;;;5072620;28;20032;-57
2021/01/05 10:22:08;;;;;;;27.55;20.77;;;;;;;;;;5072746;28;20505;-57
2021/01/05 10:24:34;;;;;;;30.85;23.55;;;;;;;;;;5072585;28;20048;-57
2021/01/05 10:27:01;;;;;;;27.20;22.50;;;;;;;;;;5072263;28;20507;-57
2021/01/05 10:29:27;;;;;;;22.60;18.80;;;;;;;;;;5072824;28;20068;-57
2021/01/05 10:31:53;;;;;;;24.55;18.92;;;;;;;;;;5071845;28;20028;-57
2021/01/05 10:34:21;;;;;;;21.83;16.92;;;;;;;;;;5072454;28;20373;-58
2021/01/05 10:36:53;;;;;;;23.45;16.23;;;;;;;;;;5072070;28;20021;-57
2021/01/05 10:39:19;;;;;;;46.53;36.17;;;;;;;;;;5072491;28;20361;-57
2021/01/05 10:41:46;;;;;;;23.40;17.92;;;;;;;;;;5067436;28;20361;-57
2021/01/05 10:44:13;;;;;;;18.25;13.98;;;;;;;;;;5053051;28;20426;-57
2021/01/05 10:46:39;;;;;;;31.25;25.15;;;;;;;;;;5078166;28;20108;-59
2021/01/05 10:49:05;;;;;;;20.23;16.20;;;;;;;;;;5075077;28;20039;-57
2021/01/05 10:51:32;;;;;;;25.58;21.67;;;;;;;;;;5072110;28;20501;-57
2021/01/05 10:53:58;;;;;;;16.20;13.27;;;;;;;;;;5071900;28;20445;-57
2021/01/05 10:56:24;;;;;;;17.98;15.75;;;;;;;;;;5072179;28;20025;-57
2021/01/05 10:58:50;;;;;;;25.20;21.48;;;;;;;;;;5071963;28;20036;-58
2021/01/05 11:01:16;;;;;;;25.52;19.10;;;;;;;;;;5071806;28;20056;-58
2021/01/05 11:03:42;;;;;;;13.27;10.52;;;;;;;;;;5072013;28;20028;-57
2021/01/05 11:06:08;;;;;;;30.65;25.10;;;;;;;;;;5071460;28;20066;-57
2021/01/05 11:08:35;;;;;;;23.92;19.27;;;;;;;;;;5072114;28;20442;-56
2021/01/05 11:11:01;;;;;;;16.58;11.18;;;;;;;;;;5071596;28;20472;-56
2021/01/05 11:13:30;;;;;;;20.65;15.45;;;;;;;;;;5071786;28;20074;-59
2021/01/05 11:15:56;;;;;;;12.20;9.27;;;;;;;;;;5072037;28;20029;-59
2021/01/05 11:18:22;;;;;;;7.93;6.72;;;;;;;;;;5056546;28;20032;-58
2021/01/05 11:20:49;;;;;;;9.45;7.78;;;;;;;;;;5053199;28;20415;-59
2021/01/05 11:23:15;;;;;;;9.75;7.88;;;;;;;;;;5057424;28;20058;-60
2021/01/05 11:25:41;;;;;;;15.48;11.02;;;;;;;;;;5062913;28;20593;-60
2021/01/05 11:28:07;;;;;;;13.60;10.48;;;;;;;;;;5053200;28;20025;-58
2021/01/05 11:30:34;;;;;;;18.48;13.48;;;;;;;;;;5070871;28;20017;-58
2021/01/05 11:33:00;;;;;;;12.27;9.57;;;;;;;;;;5071090;28;20028;-58
2021/01/05 11:35:26;;;;;;;12.55;10.52;;;;;;;;;;5053349;28;20032;-57
2021/01/05 11:37:52;;;;;;;14.88;12.55;;;;;;;;;;5067393;28;20428;-58
2021/01/05 11:40:18;;;;;;;23.75;19.80;;;;;;;;;;5071399;28;20012;-58
2021/01/05 11:42:44;;;;;;;27.35;21.55;;;;;;;;;;5071169;28;20024;-61
2021/01/05 11:45:12;;;;;;;12.60;9.88;;;;;;;;;;5070909;28;20064;-56
2021/01/05 11:47:38;;;;;;;8.68;7.03;;;;;;;;;;5071037;28;20028;-55
2021/01/05 11:50:05;;;;;;;11.60;10.00;;;;;;;;;;5056853;28;20032;-55
2021/01/05 11:52:32;;;;;;;17.10;15.10;;;;;;;;;;5056837;28;20023;-61
2021/01/05 11:54:58;;;;;;;13.48;10.73;;;;;;;;;;5040186;28;20431;-55
2021/01/05 11:57:24;;;;;;;13.77;10.82;;;;;;;;;;5063445;28;20380;-55
2021/01/05 11:59:50;;;;;;;15.27;11.25;;;;;;;;;;5075529;28;20170;-56
2021/01/05 12:02:16;;;;;;;10.43;9.13;;;;;;;;;;5073471;28;20029;-58
2021/01/05 12:04:42;;;;;;;12.38;9.63;;;;;;;;;;5060602;28;20025;-56
2021/01/05 12:07:08;;;;;;;14.98;13.43;;;;;;;;;;5075672;28;20340;-59
2021/01/05 12:09:35;;;;;;;17.38;13.65;;;;;;;;;;5075634;28;20020;-57
2021/01/05 12:12:06;;;;;;;18.55;14.13;;;;;;;;;;5075768;28;20021;-57
2021/01/05 12:14:33;;;;;;;16.30;12.68;;;;;;;;;;5075283;28;20029;-56
2021/01/05 12:17:00;;;;;;;15.90;13.65;;;;;;;;;;5067056;28;20017;-59
2021/01/05 12:19:27;;;;;;;32.67;23.70;;;;;;;;;;5069773;28;20059;-57
2021/01/05 12:22:01;;;;;;;65.40;41.65;;;;;;;;;;5074561;28;20026;-57
2021/01/05 12:24:28;;;;;;;15.88;11.00;;;;;;;;;;5074804;28;20434;-58
2021/01/05 12:26:58;;;;;;;46.92;35.35;;;;;;;;;;5075194;28;20479;-56
2021/01/05 12:29:26;;;;;;;34.75;28.15;;;;;;;;;;5075322;28;20032;-58
2021/01/05 12:31:53;;;;;;;23.17;17.85;;;;;;;;;;5073668;28;20024;-58
2021/01/05 12:34:20;;;;;;;23.45;17.80;;;;;;;;;;5074831;28;20044;-59
2021/01/05 12:36:46;;;;;;;39.67;28.25;;;;;;;;;;5087833;28;20027;-57
2021/01/05 12:39:38;;;;;;;26.77;18.95;;;;;;;;;;5075016;28;20024;-55
2021/01/05 12:42:17;;;;;;;26.10;16.45;;;;;;;;;;5052895;28;20037;-58
2021/01/05 12:44:43;;;;;;;20.75;15.93;;;;;;;;;;5056910;28;20024;-56
2021/01/05 12:47:09;;;;;;;19.27;13.20;;;;;;;;;;5058603;28;20407;-57
2021/01/05 12:49:35;;;;;;;24.35;15.80;;;;;;;;;;5073779;28;20056;-60
2021/01/05 12:52:05;;;;;;;21.90;15.95;;;;;;;;;;5074348;28;20074;-57
2021/01/05 12:54:31;;;;;;;28.42;20.63;;;;;;;;;;5056768;28;20162;-57
2021/01/05 12:56:58;;;;;;;26.00;18.10;;;;;;;;;;5074691;28;20072;-59
2021/01/05 12:59:24;;;;;;;41.30;28.48;;;;;;;;;;5074279;28;20032;-55
2021/01/05 13:01:53;;;;;;;38.47;27.08;;;;;;;;;;5055980;28;20036;-58
2021/01/05 13:04:19;;;;;;;21.70;15.48;;;;;;;;;;5073767;28;20036;-64
2021/01/05 13:06:45;;;;;;;17.08;13.77;;;;;;;;;;5074461;28;20021;-56
2021/01/05 13:09:12;;;;;;;22.55;13.57;;;;;;;;;;5074524;28;20052;-59
2021/01/05 13:11:41;;;;;;;15.60;10.77;;;;;;;;;;5072998;28;20110;-59
2021/01/05 13:14:07;;;;;;;17.52;10.68;;;;;;;;;;5066500;28;20065;-58
2021/01/05 13:16:34;;;;;;;13.00;10.52;;;;;;;;;;5073944;28;20028;-57
2021/01/05 13:19:04;;;;;;;16.88;12.30;;;;;;;;;;5074407;28;20031;-58
2021/01/05 13:21:32;;;;;;;19.70;13.15;;;;;;;;;;5074295;28;20024;-57
2021/01/05 13:24:01;;;;;;;23.55;16.42;;;;;;;;;;5074170;28;20032;-60
2021/01/05 13:26:27;;;;;;;24.60;17.67;;;;;;;;;;5073470;28;20036;-60
2021/01/05 13:28:53;;;;;;;27.13;18.67;;;;;;;;;;5074382;28;20017;-59
2021/01/05 13:31:19;;;;;;;38.35;26.60;;;;;;;;;;5074068;28;20520;-58
2021/01/05 13:33:45;;;;;;;29.88;19.02;;;;;;;;;;5074319;28;20075;-56
2021/01/05 13:36:19;;;;;;;30.55;19.13;;;;;;;;;;5074281;28;20482;-56
2021/01/05 13:38:45;;;;;;;30.50;19.70;;;;;;;;;;5074383;28;20029;-56
2021/01/05 13:41:11;;;;;;;27.17;18.67;;;;;;;;;;5074190;28;20025;-56
2021/01/05 13:43:37;;;;;;;29.85;18.48;;;;;;;;;;5074268;28;20033;-56
2021/01/05 13:46:03;;;;;;;20.73;14.02;;;;;;;;;;5073866;28;20089;-58
2021/01/05 13:48:30;;;;;;;18.05;14.07;;;;;;;;;;5073944;28;20032;-58
2021/01/05 13:50:56;;;;;;;25.70;19.98;;;;;;;;;;5056129;28;20057;-58
2021/01/05 13:53:22;;;;;;;34.13;21.42;;;;;;;;;;5073654;28;20071;-55
2021/01/05 13:55:48;;;;;;;71.15;52.05;;;;;;;;;;5074994;28;20094;-54
2021/01/05 13:58:14;;;;;;;56.83;42.17;;;;;;;;;;5073360;28;20415;-55
2021/01/05 14:00:40;;;;;;;63.35;47.83;;;;;;;;;;5073737;28;20033;-56
2021/01/05 14:03:06;;;;;;;40.00;25.38;;;;;;;;;;5073630;28;20027;-56
2021/01/05 14:05:32;;;;;;;27.17;17.85;;;;;;;;;;5073238;28;20476;-56
2021/01/05 14:07:58;;;;;;;44.63;33.58;;;;;;;;;;5073228;28;20368;-56
2021/01/05 14:10:24;;;;;;;43.45;30.70;;;;;;;;;;5073069;28;20421;-57
2021/01/05 14:12:52;;;;;;;26.10;17.58;;;;;;;;;;5070621;28;20030;-56
2021/01/05 14:15:18;;;;;;;20.08;13.48;;;;;;;;;;5065190;28;20116;-56
2021/01/05 14:17:44;;;;;;;23.70;13.48;;;;;;;;;;5068674;28;20021;-58
2021/01/05 14:20:10;;;;;;;20.55;14.25;;;;;;;;;;5072142;28;20471;-57
2021/01/05 14:22:36;;;;;;;20.42;14.05;;;;;;;;;;5072723;28;20025;-58